createdAt,value
2022-11-02T00:01:55.658Z,56.90
2022-11-02T00:04:22.592Z,55.97
2022-11-02T00:06:49.678Z,54.63
2022-11-02T00:09:16.539Z,56.93
2022-11-02T00:11:43.680Z,52.07
2022-11-02T00:14:10.741Z,53.47
2022-11-02T00:16:40.121Z,54.53
2022-11-02T00:19:08.614Z,54.27
2022-11-02T00:21:36.726Z,51.10
2022-11-02T00:24:05.919Z,54.37
2022-11-02T00:26:35.168Z,53.23
2022-11-02T00:29:03.394Z,53.23
2022-11-02T00:31:30.577Z,51.83
2022-11-02T00:33:57.621Z,53.43
2022-11-02T00:36:25.196Z,50.97
2022-11-02T00:38:52.207Z,52.00
2022-11-02T00:41:20.212Z,52.53
2022-11-02T00:43:47.441Z,51.70
2022-11-02T00:46:15.056Z,50.90
2022-11-02T00:48:42.196Z,52.90
2022-11-02T00:51:10.114Z,48.20
2022-11-02T00:53:37.069Z,50.77
2022-11-02T00:56:04.417Z,50.60
2022-11-02T00:58:31.578Z,49.13
2022-11-02T01:00:59.316Z,48.57
2022-11-02T01:03:26.186Z,49.47
2022-11-02T01:05:53.233Z,46.53
2022-11-02T01:08:20.210Z,45.70
2022-11-02T01:10:48.411Z,46.97
2022-11-02T01:13:17.345Z,47.50
2022-11-02T01:15:44.501Z,50.30
2022-11-02T01:18:11.445Z,46.58
2022-11-02T01:20:38.500Z,45.50
2022-11-02T01:23:05.426Z,47.33
2022-11-02T01:25:32.517Z,47.63
2022-11-02T01:27:59.456Z,50.00
2022-11-02T01:30:26.558Z,48.83
2022-11-02T01:32:53.401Z,48.67
2022-11-02T01:35:20.460Z,49.23
2022-11-02T01:37:47.331Z,48.13
2022-11-02T01:40:14.562Z,47.13
2022-11-02T01:42:41.517Z,49.10
2022-11-02T01:45:13.454Z,48.33
2022-11-02T01:47:45.587Z,46.97
2022-11-02T01:50:19.454Z,47.93
2022-11-02T01:52:46.463Z,51.07
2022-11-02T01:55:19.542Z,46.87
2022-11-02T01:57:53.281Z,47.07
2022-11-02T02:00:20.568Z,47.23
2022-11-02T02:03:24.270Z,48.60
2022-11-02T02:05:58.232Z,47.23
2022-11-02T02:08:27.082Z,47.67
2022-11-02T02:10:58.298Z,46.50
2022-11-02T02:13:27.910Z,48.13
2022-11-02T02:16:36.542Z,44.73
2022-11-02T02:19:18.672Z,46.67
2022-11-02T02:22:10.846Z,44.77
2022-11-02T02:24:49.994Z,48.33
2022-11-02T02:27:36.014Z,47.17
2022-11-02T02:30:10.198Z,44.50
2022-11-02T02:32:49.715Z,43.23
2022-11-02T02:35:40.520Z,43.73
2022-11-02T02:38:36.295Z,43.10
2022-11-02T02:41:38.685Z,42.90
2022-11-02T02:44:11.004Z,42.70
2022-11-02T02:46:53.612Z,45.97
2022-11-02T02:49:35.048Z,43.40
2022-11-02T02:52:04.238Z,43.87
2022-11-02T02:54:37.899Z,43.33
2022-11-02T02:57:11.696Z,44.20
2022-11-02T02:59:46.839Z,44.80
2022-11-02T03:02:29.317Z,40.77
2022-11-02T03:04:56.591Z,40.80
2022-11-02T03:07:31.051Z,40.30
2022-11-02T03:10:16.287Z,41.33
2022-11-02T03:13:07.393Z,39.47
2022-11-02T03:15:43.375Z,39.53
2022-11-02T03:18:14.712Z,38.13
2022-11-02T03:21:08.738Z,37.97
2022-11-02T03:23:39.674Z,37.57
2022-11-02T03:26:33.661Z,40.77
2022-11-02T03:29:32.180Z,39.97
2022-11-02T03:32:17.894Z,42.17
2022-11-02T03:34:48.317Z,40.20
2022-11-02T03:37:48.717Z,42.20
2022-11-02T03:40:24.871Z,39.40
2022-11-02T03:42:54.856Z,44.40
2022-11-02T03:45:31.935Z,54.90
2022-11-02T03:48:05.412Z,52.63
2022-11-02T03:50:35.101Z,51.63
2022-11-02T03:53:17.828Z,53.27
2022-11-02T03:56:05.901Z,55.13
2022-11-02T03:58:34.009Z,50.07
2022-11-02T04:01:05.577Z,49.47
2022-11-02T04:03:34.231Z,49.07
2022-11-02T04:06:01.701Z,49.03
2022-11-02T04:08:44.970Z,51.00
2022-11-02T04:11:31.065Z,50.17
2022-11-02T04:14:22.284Z,48.10
2022-11-02T04:16:50.280Z,46.80
2022-11-02T04:19:30.237Z,49.17
2022-11-02T04:22:19.376Z,48.60
2022-11-02T04:25:08.951Z,48.37
2022-11-02T04:27:36.459Z,49.97
2022-11-02T04:30:05.834Z,48.47
2022-11-02T04:33:02.194Z,49.13
2022-11-02T04:35:33.780Z,49.60
2022-11-02T04:38:20.209Z,50.10
2022-11-02T04:40:48.664Z,49.83
2022-11-02T04:43:15.609Z,48.53
2022-11-02T04:45:43.098Z,46.13
2022-11-02T04:48:10.217Z,47.47
2022-11-02T04:50:38.733Z,47.87
2022-11-02T04:53:07.322Z,48.37
2022-11-02T04:55:35.453Z,45.27
2022-11-02T04:58:03.393Z,45.90
2022-11-02T05:00:30.757Z,44.57
2022-11-02T05:02:58.587Z,42.93
2022-11-02T05:05:26.652Z,42.80
2022-11-02T05:07:57.483Z,41.90
2022-11-02T05:10:24.716Z,44.60
2022-11-02T05:12:59.739Z,42.13
2022-11-02T05:15:31.643Z,43.87
2022-11-02T05:18:00.417Z,42.37
2022-11-02T05:20:30.885Z,35.93
2022-11-02T05:22:58.648Z,35.77
2022-11-02T05:25:26.045Z,36.93
2022-11-02T05:27:53.056Z,35.57
2022-11-02T05:30:20.413Z,34.77
2022-11-02T05:32:48.210Z,33.07
2022-11-02T05:35:16.003Z,33.07
2022-11-02T05:37:44.369Z,34.73
2022-11-02T05:40:12.556Z,33.37
2022-11-02T05:42:40.363Z,34.00
2022-11-02T05:45:07.890Z,33.63
2022-11-02T05:47:34.799Z,34.90
2022-11-02T05:50:02.204Z,34.73
2022-11-02T05:52:29.904Z,34.33
2022-11-02T05:54:57.460Z,34.07
2022-11-02T05:57:24.348Z,34.40
2022-11-02T05:59:51.468Z,35.30
2022-11-02T06:02:20.850Z,35.20
2022-11-02T06:04:50.482Z,33.60
2022-11-02T06:07:17.361Z,33.93
2022-11-02T06:09:44.443Z,34.77
2022-11-02T06:12:11.302Z,33.90
2022-11-02T06:14:38.386Z,35.00
2022-11-02T06:17:05.331Z,33.33
2022-11-02T06:19:32.420Z,32.43
2022-11-02T06:21:59.308Z,33.47
2022-11-02T06:24:26.663Z,32.10
2022-11-02T06:26:53.573Z,32.93
2022-11-02T06:29:20.780Z,33.13
2022-11-02T06:31:47.636Z,32.30
2022-11-02T06:34:14.832Z,31.40
2022-11-02T06:36:41.726Z,30.53
2022-11-02T06:39:08.823Z,31.73
2022-11-02T06:41:35.705Z,31.37
2022-11-02T06:44:02.884Z,31.23
2022-11-02T06:46:29.731Z,27.20
2022-11-02T06:48:56.816Z,31.87
2022-11-02T06:51:23.717Z,29.67
2022-11-02T06:53:50.805Z,30.67
2022-11-02T06:56:17.734Z,29.87
2022-11-02T06:58:44.809Z,30.63
2022-11-02T07:01:11.881Z,29.57
2022-11-02T07:03:39.063Z,28.00
2022-11-02T07:06:11.109Z,30.00
2022-11-02T07:08:42.433Z,28.23
2022-11-02T07:11:13.844Z,29.23
2022-11-02T07:13:40.917Z,29.10
2022-11-02T07:16:07.867Z,28.67
2022-11-02T07:18:34.925Z,29.47
2022-11-02T07:21:02.646Z,29.97
2022-11-02T07:23:30.417Z,30.63
2022-11-02T07:25:57.265Z,30.47
2022-11-02T07:28:24.394Z,30.77
2022-11-02T07:30:54.758Z,28.97
2022-11-02T07:33:21.846Z,28.70
2022-11-02T07:35:48.937Z,27.87
2022-11-02T07:38:16.164Z,27.60
2022-11-02T07:40:43.033Z,26.80
2022-11-02T07:43:10.353Z,28.27
2022-11-02T07:45:42.225Z,27.90
2022-11-02T07:48:09.350Z,29.37
2022-11-02T07:50:36.442Z,28.57
2022-11-02T07:53:03.793Z,28.03
2022-11-02T07:55:32.168Z,26.23
2022-11-02T07:58:02.300Z,27.43
2022-11-02T08:00:31.672Z,26.60
2022-11-02T08:03:01.121Z,27.60
2022-11-02T08:05:29.843Z,29.90
2022-11-02T08:08:21.593Z,26.77
2022-11-02T08:10:51.233Z,25.23
2022-11-02T08:13:21.585Z,24.40
2022-11-02T08:15:53.675Z,24.93
2022-11-02T08:18:25.939Z,24.20
2022-11-02T08:20:56.451Z,25.07
2022-11-02T08:23:24.773Z,22.53
2022-11-02T08:25:53.012Z,20.87
2022-11-02T08:28:23.432Z,24.07
2022-11-02T08:30:50.498Z,23.17
2022-11-02T08:33:19.848Z,22.40
2022-11-02T08:35:48.329Z,23.13
2022-11-02T08:38:16.481Z,25.40
2022-11-02T08:40:43.505Z,26.03
2022-11-02T08:43:12.982Z,25.83
2022-11-02T08:48:28.924Z,27.97
2022-11-02T08:50:56.336Z,29.40
2022-11-02T08:53:23.665Z,27.30
2022-11-02T08:55:50.558Z,24.93
2022-11-02T08:58:18.599Z,24.90
2022-11-02T09:00:45.581Z,26.53
2022-11-02T09:03:15.310Z,26.73
2022-11-02T09:05:47.158Z,26.63
2022-11-02T09:08:20.066Z,25.17
2022-11-02T09:10:50.452Z,24.77
2022-11-02T09:13:20.893Z,24.63
2022-11-02T09:15:50.306Z,24.63
2022-11-02T09:18:17.464Z,24.63
2022-11-02T09:20:45.612Z,23.30
2022-11-02T09:23:13.071Z,23.47
2022-11-02T09:25:40.006Z,23.73
2022-11-02T09:28:07.494Z,22.10
2022-11-02T09:30:35.041Z,19.60
2022-11-02T09:33:05.218Z,19.13
2022-11-02T09:35:34.978Z,18.07
2022-11-02T09:38:02.700Z,19.30
2022-11-02T09:40:43.251Z,20.23
2022-11-02T09:43:26.091Z,17.50
2022-11-02T09:46:13.671Z,17.97
2022-11-02T09:48:57.524Z,17.37
2022-11-02T09:51:40.772Z,15.80
2022-11-02T09:54:20.258Z,14.93
2022-11-02T09:56:49.918Z,13.70
2022-11-02T09:59:20.235Z,14.10
2022-11-02T10:01:56.294Z,12.20
2022-11-02T10:04:57.839Z,14.43
2022-11-02T10:07:38.994Z,14.50
2022-11-02T10:10:22.566Z,15.67
2022-11-02T10:13:26.857Z,15.03
2022-11-02T10:16:08.921Z,14.00
2022-11-02T10:18:37.269Z,13.43
2022-11-02T10:21:16.145Z,13.07
2022-11-02T10:23:54.088Z,13.17
2022-11-02T10:26:35.919Z,14.07
2022-11-02T10:29:44.335Z,14.13
2022-11-02T10:32:13.524Z,14.23
2022-11-02T10:34:42.431Z,14.33
2022-11-02T10:37:41.396Z,15.23
2022-11-02T10:40:26.254Z,14.17
2022-11-02T10:43:15.102Z,15.13
2022-11-02T10:46:09.906Z,15.70
2022-11-02T10:48:42.695Z,15.00
2022-11-02T10:51:10.516Z,15.73
2022-11-02T10:53:43.806Z,12.70
2022-11-02T10:56:28.580Z,11.00
2022-11-02T10:59:23.758Z,12.03
2022-11-02T11:01:56.513Z,10.20
2022-11-02T11:04:28.609Z,9.20
2022-11-02T11:06:57.369Z,9.50
2022-11-02T11:09:30.630Z,9.98
2022-11-02T11:12:02.912Z,8.50
2022-11-02T11:20:36.279Z,8.13
2022-11-02T11:23:16.482Z,7.78
2022-11-02T11:25:53.635Z,8.20
2022-11-02T11:28:30.447Z,8.25
2022-11-02T11:31:11.188Z,7.63
2022-11-02T11:33:47.388Z,7.13
2022-11-02T11:36:22.422Z,6.25
2022-11-02T11:38:50.880Z,6.70
2022-11-02T11:41:18.516Z,7.10
2022-11-02T11:43:47.329Z,6.95
2022-11-02T11:46:16.066Z,6.95
2022-11-02T11:48:46.049Z,6.40
2022-11-02T11:51:33.546Z,6.93
2022-11-02T11:54:05.898Z,6.47
2022-11-02T11:56:33.873Z,6.88
2022-11-02T11:59:00.789Z,7.38
2022-11-02T12:01:39.067Z,6.85
2022-11-02T12:04:07.957Z,7.40
2022-11-02T12:07:00.750Z,7.03
2022-11-02T12:09:31.543Z,7.88
2022-11-02T12:12:10.618Z,7.15
2022-11-02T12:15:22.922Z,6.68
2022-11-02T12:17:55.771Z,6.20
2022-11-02T12:20:54.856Z,6.15
2022-11-02T12:23:48.141Z,6.82
2022-11-02T12:26:23.004Z,6.25
2022-11-02T12:29:01.401Z,6.35
2022-11-02T12:31:41.995Z,5.95
2022-11-02T12:34:27.246Z,5.65
2022-11-02T12:40:13.297Z,5.85
2022-11-02T12:43:04.644Z,6.10
2022-11-02T12:45:59.377Z,7.55
2022-11-02T12:48:41.157Z,6.75
2022-11-02T12:51:17.784Z,5.30
2022-11-02T12:53:54.533Z,4.80
2022-11-02T12:56:30.946Z,5.03
2022-11-02T12:58:59.757Z,5.07
2022-11-02T13:01:30.289Z,4.70
2022-11-02T13:03:57.553Z,4.78
2022-11-02T13:06:36.980Z,4.22
2022-11-02T13:09:11.513Z,4.07
2022-11-02T13:11:56.633Z,3.75
2022-11-02T13:14:27.104Z,3.83
2022-11-02T13:17:26.970Z,4.03
2022-11-02T13:19:58.033Z,3.80
2022-11-02T13:22:35.655Z,4.00
2022-11-02T13:25:18.389Z,4.03
2022-11-02T13:28:09.404Z,4.15
2022-11-02T13:30:39.601Z,5.45
2022-11-02T13:33:27.790Z,4.15
2022-11-02T13:35:54.955Z,3.38
2022-11-02T13:38:35.437Z,2.88
2022-11-02T13:41:14.789Z,3.20
2022-11-02T13:43:53.414Z,3.92
2022-11-02T13:46:43.636Z,4.10
2022-11-02T13:49:38.924Z,2.60
2022-11-02T13:52:15.555Z,3.53
2022-11-02T13:54:46.938Z,3.42
2022-11-02T13:57:58.553Z,3.85
2022-11-02T14:00:30.656Z,4.38
2022-11-02T14:03:08.302Z,4.95
2022-11-02T14:05:44.464Z,5.50
2022-11-02T14:08:21.047Z,4.88
2022-11-02T14:11:25.154Z,7.72
2022-11-02T14:13:55.249Z,6.20
2022-11-02T14:16:40.168Z,5.70
2022-11-02T14:19:48.834Z,5.90
2022-11-02T14:22:18.380Z,5.78
2022-11-02T14:24:45.509Z,6.40
2022-11-02T14:27:12.417Z,8.52
2022-11-02T14:29:51.493Z,7.87
2022-11-02T14:32:21.477Z,8.80
2022-11-02T14:35:06.973Z,6.53
2022-11-02T14:37:58.017Z,3.97
2022-11-02T14:40:43.139Z,3.33
2022-11-02T14:43:27.140Z,3.70
2022-11-02T14:46:10.327Z,3.40
2022-11-02T14:48:48.316Z,4.53
2022-11-02T14:51:25.944Z,3.30
2022-11-02T14:54:01.534Z,3.07
2022-11-02T14:57:15.284Z,3.23
2022-11-02T14:59:49.930Z,3.00
2022-11-02T15:02:22.221Z,3.70
2022-11-02T15:04:53.058Z,4.60
2022-11-02T15:07:40.305Z,4.07
2022-11-02T15:10:30.080Z,4.10
2022-11-02T15:13:18.826Z,3.50
2022-11-02T15:16:12.053Z,3.00
2022-11-02T15:18:40.548Z,3.70
2022-11-02T15:21:10.591Z,3.30
2022-11-02T15:24:05.751Z,3.67
2022-11-02T15:26:56.360Z,3.13
2022-11-02T15:29:36.917Z,2.97
2022-11-02T15:32:09.464Z,3.33
2022-11-02T15:34:50.476Z,4.47
2022-11-02T15:37:22.054Z,2.93
2022-11-02T15:40:10.201Z,3.07
2022-11-02T15:42:43.200Z,3.07
2022-11-02T15:45:48.786Z,4.07
2022-11-02T15:48:43.668Z,4.73
2022-11-02T15:51:35.453Z,4.40
2022-11-02T15:54:27.782Z,4.00
2022-11-02T15:56:59.733Z,4.00
2022-11-02T15:59:37.343Z,4.20
2022-11-02T16:02:22.945Z,3.97
2022-11-02T16:04:53.947Z,3.90
2022-11-02T16:07:22.023Z,3.63
2022-11-02T16:09:49.392Z,3.63
2022-11-02T16:12:23.614Z,3.83
2022-11-02T16:14:58.804Z,3.33
2022-11-02T16:17:28.257Z,3.47
2022-11-02T16:20:13.877Z,3.40
2022-11-02T16:22:41.311Z,3.63
2022-11-02T16:25:14.382Z,3.53
2022-11-02T16:27:41.308Z,2.83
2022-11-02T16:30:18.398Z,3.67
2022-11-02T16:32:46.636Z,4.30
2022-11-02T16:35:16.881Z,3.67
2022-11-02T16:37:44.296Z,5.40
2022-11-02T16:40:19.660Z,3.00
2022-11-02T16:42:48.969Z,3.77
2022-11-02T16:45:40.381Z,2.67
2022-11-02T16:48:16.165Z,2.40
2022-11-02T16:51:09.112Z,2.70
2022-11-02T16:53:42.041Z,3.37
2022-11-02T16:56:17.850Z,2.90
2022-11-02T16:58:59.840Z,2.67
2022-11-02T17:01:34.239Z,3.37
2022-11-02T17:04:05.595Z,3.83
2022-11-02T17:06:41.607Z,4.07
2022-11-02T17:09:21.953Z,3.87
2022-11-02T17:11:50.070Z,4.37
2022-11-02T17:14:20.348Z,3.33
2022-11-02T17:17:22.795Z,3.63
2022-11-02T17:20:05.597Z,3.53
2022-11-02T17:22:36.926Z,3.77
2022-11-02T17:25:03.802Z,3.83
2022-11-02T17:27:37.646Z,3.67
2022-11-02T17:30:33.887Z,3.33
2022-11-02T17:33:22.448Z,3.33
2022-11-02T17:35:51.609Z,3.53
2022-11-02T17:38:22.223Z,3.50
2022-11-02T17:40:52.223Z,3.30
2022-11-02T17:43:20.646Z,4.03
2022-11-02T17:45:57.572Z,4.10
2022-11-02T17:48:26.264Z,3.40
2022-11-02T17:50:55.027Z,4.60
2022-11-02T17:53:23.656Z,5.27
2022-11-02T17:55:50.607Z,2.87
2022-11-02T17:58:18.059Z,4.23
2022-11-02T18:00:45.153Z,3.23
2022-11-02T18:03:20.281Z,4.27
2022-11-02T18:05:50.224Z,4.00
2022-11-02T18:08:19.310Z,3.87
2022-11-02T18:10:47.864Z,3.87
2022-11-02T18:13:18.540Z,4.13
2022-11-02T18:15:45.518Z,4.40
2022-11-02T18:18:12.977Z,4.70
2022-11-02T18:20:42.004Z,4.43
2022-11-02T18:23:19.906Z,4.73
2022-11-02T18:25:46.968Z,4.43
2022-11-02T18:28:14.366Z,4.20
2022-11-02T18:30:44.422Z,4.10
2022-11-02T18:33:13.636Z,4.43
2022-11-02T18:35:42.231Z,6.50
2022-11-02T18:38:09.414Z,4.40
2022-11-02T18:40:36.298Z,4.97
2022-11-02T18:43:03.877Z,6.03
2022-11-02T18:45:30.983Z,5.20
2022-11-02T18:47:58.316Z,5.43
2022-11-02T18:50:25.241Z,5.90
2022-11-02T18:52:52.482Z,5.00
2022-11-02T18:55:19.306Z,7.00
2022-11-02T18:57:47.115Z,5.97
2022-11-02T19:00:14.364Z,6.83
2022-11-02T19:02:41.562Z,6.97
2022-11-02T19:05:28.572Z,6.07
2022-11-02T19:08:18.207Z,6.30
2022-11-02T19:10:47.524Z,6.60
2022-11-02T19:13:14.739Z,6.20
2022-11-02T19:15:42.894Z,6.83
2022-11-02T19:18:10.312Z,6.90
2022-11-02T19:20:37.190Z,6.50
2022-11-02T19:23:04.574Z,5.90
2022-11-02T19:25:31.476Z,6.13
2022-11-02T19:27:59.339Z,6.23
2022-11-02T19:30:26.187Z,6.80
2022-11-02T19:32:53.416Z,6.00
2022-11-02T19:35:20.245Z,6.57
2022-11-02T19:37:47.332Z,5.97
2022-11-02T19:40:14.381Z,6.13
2022-11-02T19:42:41.553Z,5.77
2022-11-02T19:45:16.977Z,6.17
2022-11-02T19:47:44.376Z,6.33
2022-11-02T19:50:11.553Z,5.67
2022-11-02T19:52:38.771Z,5.53
2022-11-02T19:55:06.368Z,5.93
2022-11-02T19:57:33.630Z,6.17
2022-11-02T20:00:00.527Z,5.77
2022-11-02T20:02:27.845Z,5.97
2022-11-02T20:04:54.811Z,5.70
2022-11-02T20:07:21.953Z,6.63
2022-11-02T20:09:48.879Z,5.03
2022-11-02T20:12:16.126Z,4.77
2022-11-02T20:14:43.032Z,5.73
2022-11-02T20:17:30.063Z,5.30
2022-11-02T20:19:57.228Z,4.83
2022-11-02T20:22:24.470Z,5.73
2022-11-02T20:24:51.347Z,5.67
2022-11-02T20:27:18.522Z,5.23
2022-11-02T20:29:46.393Z,6.33
2022-11-02T20:32:13.650Z,4.67
2022-11-02T20:34:40.500Z,6.43
2022-11-02T20:37:07.735Z,5.07
2022-11-02T20:39:34.583Z,4.47
2022-11-02T20:42:01.789Z,5.27
2022-11-02T20:44:28.765Z,4.30
2022-11-02T20:46:55.912Z,4.10
2022-11-02T20:49:48.932Z,4.70
2022-11-02T20:52:10.690Z,4.83
2022-11-02T20:54:37.602Z,3.73
2022-11-02T20:57:05.206Z,4.10
2022-11-02T20:59:32.077Z,4.47
2022-11-02T21:01:59.290Z,3.33
2022-11-02T21:04:26.431Z,4.23
2022-11-02T21:06:53.504Z,3.50
2022-11-02T21:09:20.397Z,3.73
2022-11-02T21:12:06.096Z,4.17
2022-11-02T21:14:32.989Z,3.70
2022-11-02T21:17:02.081Z,3.30
2022-11-02T21:19:29.387Z,2.90
2022-11-02T21:21:59.987Z,3.67
2022-11-02T21:24:28.658Z,3.40
2022-11-02T21:26:56.091Z,4.37
2022-11-02T21:29:22.980Z,3.30
2022-11-02T21:31:50.272Z,3.97
2022-11-02T21:34:17.182Z,3.70
2022-11-02T21:36:44.289Z,3.13
2022-11-02T21:39:11.185Z,2.93
2022-11-02T21:41:39.086Z,3.67
2022-11-02T21:44:07.529Z,3.93
2022-11-02T21:46:35.473Z,3.17
2022-11-02T21:49:02.965Z,2.60
2022-11-02T21:51:30.327Z,2.73
2022-11-02T21:53:57.181Z,2.60
2022-11-02T21:56:26.868Z,2.50
2022-11-02T21:58:55.459Z,2.80
2022-11-02T22:01:44.806Z,2.60
2022-11-02T22:04:15.764Z,3.20
2022-11-02T22:06:43.191Z,3.30
2022-11-02T22:09:12.205Z,3.17
2022-11-02T22:11:39.706Z,2.80
2022-11-02T22:14:06.905Z,3.00
2022-11-02T22:16:36.014Z,2.60
2022-11-02T22:19:06.667Z,2.80
2022-11-02T22:21:37.442Z,3.00
2022-11-02T22:24:05.721Z,2.80
2022-11-02T22:26:34.952Z,2.57
2022-11-02T22:29:02.665Z,2.60
2022-11-02T22:31:35.396Z,2.63
2022-11-02T22:34:04.409Z,2.70
2022-11-02T22:36:33.204Z,3.00
2022-11-02T22:39:01.827Z,2.60
2022-11-02T22:41:31.953Z,2.30
2022-11-02T22:44:00.112Z,2.63
2022-11-02T22:46:28.349Z,2.53
2022-11-02T22:48:57.213Z,2.07
2022-11-02T22:51:26.482Z,2.10
2022-11-02T22:53:54.822Z,2.33
2022-11-02T22:56:23.506Z,2.20
2022-11-02T22:58:51.044Z,1.87
2022-11-02T23:01:20.588Z,2.00
2022-11-02T23:03:48.570Z,1.70
2022-11-02T23:06:16.735Z,2.13
2022-11-02T23:08:45.999Z,2.87
2022-11-02T23:11:23.974Z,2.30
2022-11-02T23:13:56.854Z,2.10
2022-11-02T23:16:32.445Z,2.50
2022-11-02T23:19:25.115Z,2.40
2022-11-02T23:22:27.951Z,2.60
2022-11-02T23:25:12.707Z,2.70
2022-11-02T23:28:01.907Z,2.97
2022-11-02T23:30:55.573Z,2.50
2022-11-02T23:33:24.457Z,2.07
2022-11-02T23:36:10.698Z,2.87
2022-11-02T23:39:00.127Z,2.50
2022-11-02T23:41:28.720Z,1.90
2022-11-02T23:44:11.949Z,2.43
2022-11-02T23:46:41.594Z,2.50
2022-11-02T23:49:08.701Z,2.40
2022-11-02T23:51:54.496Z,2.43
2022-11-02T23:54:40.464Z,2.37
2022-11-02T23:57:07.694Z,2.40
2022-11-02T23:59:34.580Z,2.20
